createdAt,value
2018-12-03T00:00:15.588Z,7.67
2018-12-03T00:02:47.953Z,7.23
2018-12-03T00:05:19.976Z,7.40
2018-12-03T00:07:52.009Z,8.60
2018-12-03T00:10:24.017Z,7.90
2018-12-03T00:12:56.048Z,8.60
2018-12-03T00:15:28.064Z,7.73
2018-12-03T00:18:00.104Z,8.03
2018-12-03T00:20:32.116Z,9.27
2018-12-03T00:23:04.374Z,8.47
2018-12-03T00:25:36.408Z,8.97
2018-12-03T00:28:08.423Z,8.90
2018-12-03T00:30:40.460Z,7.33
2018-12-03T00:33:12.492Z,7.97
2018-12-03T00:35:44.563Z,8.17
2018-12-03T00:38:16.552Z,8.70
2018-12-03T00:40:48.639Z,7.83
2018-12-03T00:43:20.676Z,8.37
2018-12-03T00:45:52.752Z,8.87
2018-12-03T00:48:24.786Z,7.60
2018-12-03T00:50:56.826Z,7.87
2018-12-03T00:53:28.837Z,7.30
2018-12-03T00:56:00.937Z,6.00
2018-12-03T00:58:32.971Z,6.07
2018-12-03T01:01:05.037Z,6.20
2018-12-03T01:03:37.056Z,5.63
2018-12-03T01:06:09.084Z,5.10
2018-12-03T01:08:41.105Z,5.53
2018-12-03T01:11:13.143Z,4.10
2018-12-03T01:13:45.179Z,4.27
2018-12-03T01:16:17.259Z,4.40
2018-12-03T01:18:49.270Z,4.17
2018-12-03T01:21:21.353Z,3.93
2018-12-03T01:23:53.725Z,4.00
2018-12-03T01:26:25.755Z,3.53
2018-12-03T01:28:57.798Z,3.60
2018-12-03T01:31:29.863Z,3.30
2018-12-03T01:34:01.908Z,3.40
2018-12-03T01:36:33.941Z,3.20
2018-12-03T01:39:07.837Z,3.03
2018-12-03T01:41:39.856Z,3.17
2018-12-03T01:44:11.847Z,2.90
2018-12-03T01:46:43.874Z,3.00
2018-12-03T01:49:15.888Z,2.70
2018-12-03T01:51:47.903Z,2.80
2018-12-03T01:54:19.936Z,2.77
2018-12-03T01:56:51.964Z,3.07
2018-12-03T01:59:23.993Z,2.63
2018-12-03T02:01:56.044Z,2.23
2018-12-03T02:04:28.062Z,2.93
2018-12-03T02:07:00.125Z,3.30
2018-12-03T02:09:32.165Z,3.33
2018-12-03T02:12:04.223Z,3.77
2018-12-03T02:14:36.498Z,3.63
2018-12-03T02:17:08.564Z,3.87
2018-12-03T02:19:40.587Z,4.37
2018-12-03T02:22:12.581Z,4.40
2018-12-03T02:24:44.664Z,4.97
2018-12-03T02:27:16.685Z,4.67
2018-12-03T02:29:48.718Z,5.07
2018-12-03T02:32:20.719Z,5.57
2018-12-03T02:34:52.800Z,5.60
2018-12-03T02:37:24.835Z,4.97
2018-12-03T02:39:56.884Z,5.03
2018-12-03T02:42:28.886Z,5.83
2018-12-03T02:45:00.956Z,5.03
2018-12-03T02:47:32.957Z,5.20
2018-12-03T02:50:09.542Z,5.93
2018-12-03T02:52:41.595Z,6.43
2018-12-03T02:55:14.411Z,6.90
2018-12-03T02:57:46.482Z,7.53
2018-12-03T03:00:18.677Z,7.53
2018-12-03T03:02:50.705Z,7.77
2018-12-03T03:05:22.819Z,7.87
2018-12-03T03:07:54.855Z,8.30
2018-12-03T03:10:26.987Z,8.53
2018-12-03T03:12:59.045Z,8.77
2018-12-03T03:15:31.160Z,9.40
2018-12-03T03:18:03.224Z,8.00
2018-12-03T03:20:35.361Z,9.57
2018-12-03T03:23:07.432Z,8.67
2018-12-03T03:25:39.529Z,8.83
2018-12-03T03:28:11.705Z,8.40
2018-12-03T03:30:43.871Z,9.13
2018-12-03T03:33:16.201Z,8.67
2018-12-03T03:35:48.285Z,9.47
2018-12-03T03:38:20.351Z,9.53
2018-12-03T03:40:53.123Z,8.80
2018-12-03T03:43:25.185Z,8.90
2018-12-03T03:45:57.287Z,8.90
2018-12-03T03:48:29.368Z,9.50
2018-12-03T03:51:01.450Z,9.17
2018-12-03T03:53:33.561Z,9.90
2018-12-03T03:56:05.701Z,9.33
2018-12-03T03:58:37.754Z,9.23
2018-12-03T04:01:09.860Z,8.33
2018-12-03T04:03:42.035Z,8.83
2018-12-03T04:06:14.158Z,8.13
2018-12-03T04:08:46.261Z,8.60
2018-12-03T04:11:18.288Z,8.63
2018-12-03T04:13:50.421Z,7.30
2018-12-03T04:16:22.498Z,7.70
2018-12-03T04:18:54.710Z,8.30
2018-12-03T04:21:26.786Z,7.03
2018-12-03T04:23:58.852Z,6.70
2018-12-03T04:26:30.880Z,6.73
2018-12-03T04:29:02.964Z,6.20
2018-12-03T04:31:35.136Z,7.10
2018-12-03T04:34:07.264Z,6.03
2018-12-03T04:36:39.319Z,6.70
2018-12-03T04:39:11.469Z,6.30
2018-12-03T04:41:43.480Z,6.30
2018-12-03T04:44:15.624Z,6.90
2018-12-03T04:46:47.709Z,6.33
2018-12-03T04:49:19.774Z,6.53
2018-12-03T04:51:51.833Z,6.70
2018-12-03T04:54:23.976Z,6.80
2018-12-03T04:56:56.153Z,5.80
2018-12-03T04:59:28.301Z,6.23
2018-12-03T05:02:00.487Z,5.70
2018-12-03T05:04:32.561Z,5.53
2018-12-03T05:07:04.713Z,5.63
2018-12-03T05:09:36.903Z,5.00
2018-12-03T05:12:08.965Z,5.37
2018-12-03T05:14:41.055Z,4.70
2018-12-03T05:17:13.317Z,5.07
2018-12-03T05:19:45.423Z,4.60
2018-12-03T05:22:17.587Z,5.30
2018-12-03T05:24:49.972Z,5.67
2018-12-03T05:27:22.097Z,5.30
2018-12-03T05:29:54.151Z,5.13
2018-12-03T05:32:26.185Z,4.73
2018-12-03T05:34:58.239Z,6.30
2018-12-03T05:37:30.300Z,5.50
2018-12-03T05:40:02.579Z,5.13
2018-12-03T05:42:34.610Z,5.27
2018-12-03T05:45:07.626Z,5.17
2018-12-03T05:47:39.678Z,6.27
2018-12-03T05:50:13.700Z,7.00
2018-12-03T05:52:46.444Z,6.20
2018-12-03T05:55:18.511Z,5.43
2018-12-03T05:57:50.545Z,5.93
2018-12-03T06:00:23.315Z,6.07
2018-12-03T06:02:55.438Z,5.33
2018-12-03T06:05:27.460Z,6.33
2018-12-03T06:07:59.464Z,5.57
2018-12-03T06:10:31.512Z,6.57
2018-12-03T06:13:03.634Z,5.80
2018-12-03T06:15:35.716Z,5.70
2018-12-03T06:18:07.760Z,5.50
2018-12-03T06:20:39.773Z,5.47
2018-12-03T06:23:11.795Z,5.33
2018-12-03T06:25:43.848Z,5.37
2018-12-03T06:28:16.169Z,5.37
2018-12-03T06:30:48.327Z,5.93
2018-12-03T06:33:20.407Z,6.03
2018-12-03T06:35:52.557Z,5.30
2018-12-03T06:38:24.661Z,6.40
2018-12-03T06:40:56.730Z,5.40
2018-12-03T06:43:28.926Z,5.63
2018-12-03T06:46:01.145Z,5.77
2018-12-03T06:48:33.199Z,5.23
2018-12-03T06:51:05.289Z,6.87
2018-12-03T06:53:37.481Z,6.30
2018-12-03T06:56:09.556Z,6.83
2018-12-03T06:58:41.551Z,6.90
2018-12-03T07:01:13.672Z,6.97
2018-12-03T07:03:45.793Z,5.97
2018-12-03T07:06:18.024Z,6.53
2018-12-03T07:08:50.033Z,6.70
2018-12-03T07:11:22.099Z,6.03
2018-12-03T07:13:54.109Z,5.37
2018-12-03T07:16:26.283Z,7.03
2018-12-03T07:18:58.408Z,6.00
2018-12-03T07:21:30.517Z,6.53
2018-12-03T07:24:02.562Z,6.97
2018-12-03T07:26:34.658Z,8.37
2018-12-03T07:29:06.666Z,7.10
2018-12-03T07:31:38.764Z,7.67
2018-12-03T07:34:10.806Z,7.33
2018-12-03T07:36:42.841Z,6.60
2018-12-03T07:39:14.830Z,7.40
2018-12-03T07:41:46.891Z,7.57
2018-12-03T07:44:18.990Z,6.63
2018-12-03T07:46:51.254Z,6.50
2018-12-03T07:49:23.412Z,5.97
2018-12-03T07:51:55.437Z,5.97
2018-12-03T07:54:27.436Z,6.23
2018-12-03T07:56:59.660Z,6.53
2018-12-03T07:59:31.685Z,6.77
2018-12-03T08:02:03.767Z,7.33
2018-12-03T08:04:35.932Z,6.47
2018-12-03T08:07:08.227Z,5.80
2018-12-03T08:09:40.569Z,6.33
2018-12-03T08:12:12.621Z,6.23
2018-12-03T08:14:44.604Z,5.23
2018-12-03T08:17:16.645Z,4.73
2018-12-03T08:19:48.673Z,5.40
2018-12-03T08:22:20.840Z,5.50
2018-12-03T08:24:52.859Z,6.57
2018-12-03T08:27:24.880Z,6.67
2018-12-03T08:29:56.920Z,5.07
2018-12-03T08:32:28.920Z,5.23
2018-12-03T08:35:01.018Z,5.00
2018-12-03T08:37:33.079Z,5.30
2018-12-03T08:40:10.781Z,5.00
2018-12-03T08:42:46.269Z,4.73
2018-12-03T08:45:18.809Z,5.07
2018-12-03T08:47:51.078Z,5.30
2018-12-03T08:50:24.432Z,4.53
2018-12-03T08:52:57.260Z,3.47
2018-12-03T08:55:29.328Z,4.47
2018-12-03T08:58:01.362Z,3.90
2018-12-03T09:00:33.404Z,3.77
2018-12-03T09:03:39.655Z,4.23
2018-12-03T09:06:12.521Z,3.33
2018-12-03T09:08:47.701Z,4.80
2018-12-03T09:11:20.749Z,4.47
2018-12-03T09:14:31.816Z,5.73
2018-12-03T09:17:04.568Z,5.87
2018-12-03T09:19:36.759Z,5.63
2018-12-03T09:22:08.904Z,4.47
2018-12-03T09:24:41.095Z,4.37
2018-12-03T09:27:15.613Z,3.90
2018-12-03T09:29:47.793Z,3.80
2018-12-03T09:32:20.000Z,3.27
2018-12-03T09:34:52.209Z,2.43
2018-12-03T09:37:26.356Z,2.10
2018-12-03T09:39:58.555Z,2.40
2018-12-03T09:42:32.497Z,2.37
2018-12-03T09:45:11.500Z,2.30
2018-12-03T09:47:43.992Z,2.70
2018-12-03T09:50:19.336Z,2.83
2018-12-03T09:52:51.597Z,2.23
2018-12-03T09:55:26.151Z,2.17
2018-12-03T09:58:02.677Z,2.20
2018-12-03T10:00:34.897Z,2.20
2018-12-03T10:03:09.093Z,2.37
2018-12-03T10:05:57.012Z,2.20
2018-12-03T10:08:30.281Z,2.60
2018-12-03T10:11:02.788Z,2.40
2018-12-03T10:13:34.953Z,2.27
2018-12-03T10:16:07.149Z,2.90
2018-12-03T10:18:43.225Z,2.77
2018-12-03T10:21:15.460Z,2.80
2018-12-03T10:23:47.644Z,3.03
2018-12-03T10:26:19.909Z,2.70
2018-12-03T10:28:52.047Z,3.00
2018-12-03T10:31:24.265Z,2.33
2018-12-03T10:33:56.436Z,2.60
2018-12-03T10:36:28.569Z,2.57
2018-12-03T10:39:00.757Z,2.83
2018-12-03T10:41:32.911Z,2.37
2018-12-03T10:44:05.124Z,2.47
2018-12-03T10:46:37.328Z,2.20
2018-12-03T10:49:09.559Z,1.77
2018-12-03T10:51:41.748Z,1.80
2018-12-03T10:54:13.992Z,1.10
2018-12-03T10:56:46.184Z,0.90
2018-12-03T10:59:18.372Z,1.00
2018-12-03T11:01:53.676Z,0.70
2018-12-03T11:04:37.539Z,0.93
2018-12-03T11:07:11.949Z,0.83
2018-12-03T11:09:44.205Z,0.50
2018-12-03T11:12:16.396Z,0.70
2018-12-03T11:14:48.588Z,0.60
2018-12-03T11:17:20.844Z,0.60
2018-12-03T11:19:53.061Z,0.50
2018-12-03T11:22:25.282Z,0.50
2018-12-03T11:24:57.468Z,0.60
2018-12-03T11:27:34.040Z,0.50
2018-12-03T11:30:09.363Z,0.67
2018-12-03T11:32:48.237Z,0.60
2018-12-03T11:35:26.072Z,0.60
2018-12-03T11:38:11.873Z,0.67
2018-12-03T11:40:49.634Z,0.80
2018-12-03T11:43:23.628Z,1.00
2018-12-03T11:48:36.448Z,0.87
2018-12-03T11:51:08.868Z,1.17
2018-12-03T11:53:41.048Z,1.13
2018-12-03T11:56:13.288Z,2.00
2018-12-03T11:58:45.480Z,1.40
2018-12-03T12:01:17.617Z,1.00
2018-12-03T12:03:49.732Z,0.90
2018-12-03T12:06:21.893Z,1.43
2018-12-03T12:08:54.315Z,1.00
2018-12-03T12:11:27.444Z,1.00
2018-12-03T12:13:59.672Z,1.13
2018-12-03T12:16:31.925Z,1.53
2018-12-03T12:19:04.214Z,1.50
2018-12-03T12:21:36.412Z,1.10
2018-12-03T12:24:08.647Z,1.00
2018-12-03T12:26:41.360Z,1.53
2018-12-03T12:29:13.580Z,1.87
2018-12-03T12:31:45.845Z,1.77
2018-12-03T12:34:18.064Z,1.27
2018-12-03T12:36:50.318Z,1.63
2018-12-03T12:39:22.548Z,1.60
2018-12-03T12:41:54.756Z,1.97
2018-12-03T12:44:27.002Z,2.00
2018-12-03T12:46:59.214Z,2.00
2018-12-03T12:49:31.328Z,1.83
2018-12-03T12:52:03.559Z,1.50
2018-12-03T12:54:35.795Z,2.30
2018-12-03T12:57:07.973Z,2.47
2018-12-03T12:59:40.164Z,1.80
2018-12-03T13:02:13.273Z,2.23
2018-12-03T13:04:45.501Z,1.80
2018-12-03T13:07:17.712Z,1.63
2018-12-03T13:09:50.062Z,1.80
2018-12-03T13:12:22.207Z,1.93
2018-12-03T13:14:54.560Z,2.27
2018-12-03T13:17:26.739Z,1.93
2018-12-03T13:19:58.922Z,1.80
2018-12-03T13:22:34.823Z,2.10
2018-12-03T13:25:09.880Z,2.10
2018-12-03T13:27:42.109Z,1.80
2018-12-03T13:30:15.384Z,1.87
2018-12-03T13:32:47.656Z,2.33
2018-12-03T13:35:19.875Z,1.90
2018-12-03T13:37:52.028Z,2.20
2018-12-03T13:40:24.284Z,13.77
2018-12-03T13:43:01.169Z,2.73
2018-12-03T13:45:33.544Z,2.27
2018-12-03T13:48:06.574Z,2.80
2018-12-03T13:50:38.775Z,2.60
2018-12-03T13:53:11.032Z,2.73
2018-12-03T13:55:44.889Z,2.87
2018-12-03T13:58:18.048Z,2.40
2018-12-03T14:00:50.353Z,2.70
2018-12-03T14:03:24.551Z,3.20
2018-12-03T14:06:14.047Z,3.27
2018-12-03T14:08:56.647Z,9.90
2018-12-03T14:11:36.470Z,9.50
2018-12-03T14:14:17.730Z,3.40
2018-12-03T14:17:57.308Z,3.70
2018-12-03T14:20:32.890Z,4.63
2018-12-03T14:23:07.766Z,3.53
2018-12-03T14:25:39.968Z,4.13
2018-12-03T14:28:12.294Z,3.90
2018-12-03T14:30:44.509Z,3.63
2018-12-03T14:33:16.752Z,4.30
2018-12-03T14:35:48.990Z,3.57
2018-12-03T14:38:21.231Z,4.20
2018-12-03T14:40:53.702Z,4.03
2018-12-03T14:43:25.905Z,3.67
2018-12-03T14:45:58.128Z,3.70
2018-12-03T14:48:30.287Z,3.80
2018-12-03T14:51:02.512Z,3.83
2018-12-03T14:53:34.815Z,4.33
2018-12-03T14:56:06.993Z,4.30
2018-12-03T14:58:39.280Z,5.27
2018-12-03T15:01:11.466Z,4.50
2018-12-03T15:03:43.674Z,4.50
2018-12-03T15:06:15.863Z,4.63
2018-12-03T15:08:47.948Z,4.63
2018-12-03T15:11:20.180Z,4.00
2018-12-03T15:13:52.383Z,4.37
2018-12-03T15:16:24.622Z,4.47
2018-12-03T15:18:56.793Z,5.63
2018-12-03T15:21:29.004Z,4.57
2018-12-03T15:24:01.233Z,4.80
2018-12-03T15:26:33.575Z,4.23
2018-12-03T15:29:05.780Z,3.83
2018-12-03T15:31:37.984Z,4.17
2018-12-03T15:34:10.188Z,4.03
2018-12-03T15:36:42.558Z,3.60
2018-12-03T15:39:14.874Z,4.63
2018-12-03T15:41:47.172Z,4.27
2018-12-03T15:44:19.389Z,4.47
2018-12-03T15:46:51.535Z,4.63
2018-12-03T15:49:23.606Z,4.83
2018-12-03T15:51:55.804Z,4.40
2018-12-03T15:54:28.041Z,5.17
2018-12-03T15:57:00.229Z,5.23
2018-12-03T15:59:32.340Z,4.90
2018-12-03T16:02:05.215Z,5.07
2018-12-03T16:04:37.433Z,5.43
2018-12-03T16:07:16.174Z,5.00
2018-12-03T16:09:48.456Z,5.97
2018-12-03T16:12:20.656Z,4.93
2018-12-03T16:14:52.872Z,5.43
2018-12-03T16:17:25.048Z,5.53
2018-12-03T16:19:57.644Z,4.87
2018-12-03T16:22:29.856Z,5.40
2018-12-03T16:25:02.395Z,5.07
2018-12-03T16:27:34.527Z,6.27
2018-12-03T16:30:10.263Z,5.10
2018-12-03T16:32:42.575Z,5.80
2018-12-03T16:35:14.807Z,5.50
2018-12-03T16:37:47.099Z,5.57
2018-12-03T16:40:19.509Z,5.70
2018-12-03T16:42:51.834Z,5.57
2018-12-03T16:45:24.075Z,5.47
2018-12-03T16:47:56.250Z,6.37
2018-12-03T16:50:28.368Z,6.20
2018-12-03T16:53:00.500Z,5.53
2018-12-03T16:55:32.668Z,5.50
2018-12-03T16:58:04.863Z,5.53
2018-12-03T17:00:36.948Z,4.97
2018-12-03T17:03:09.165Z,4.70
2018-12-03T17:05:41.320Z,4.80
2018-12-03T17:08:13.421Z,5.20
2018-12-03T17:10:45.619Z,5.03
2018-12-03T17:13:17.638Z,5.40
2018-12-03T17:15:49.812Z,4.20
2018-12-03T17:18:22.008Z,5.10
2018-12-03T17:20:59.624Z,5.23
2018-12-03T17:23:59.037Z,5.37
2018-12-03T17:26:31.249Z,5.37
2018-12-03T17:29:03.467Z,5.20
2018-12-03T17:31:35.645Z,5.53
2018-12-03T17:34:07.863Z,4.90
2018-12-03T17:36:40.081Z,5.47
2018-12-03T17:39:12.281Z,4.60
2018-12-03T17:41:44.487Z,4.47
2018-12-03T17:44:16.725Z,5.23
2018-12-03T17:46:48.916Z,5.33
2018-12-03T17:49:21.129Z,5.70
2018-12-03T17:51:53.311Z,7.23
2018-12-03T17:54:25.576Z,6.67
2018-12-03T17:56:57.748Z,6.80
2018-12-03T17:59:30.393Z,5.47
2018-12-03T18:02:02.707Z,6.30
2018-12-03T18:04:34.941Z,6.40
2018-12-03T18:07:07.150Z,6.73
2018-12-03T18:09:39.382Z,7.03
2018-12-03T18:12:11.611Z,7.57
2018-12-03T18:14:43.833Z,7.87
2018-12-03T18:17:16.040Z,7.70
2018-12-03T18:19:48.237Z,6.83
2018-12-03T18:22:25.828Z,5.47
2018-12-03T18:24:58.884Z,6.77
2018-12-03T18:27:31.725Z,5.67
2018-12-03T18:30:06.032Z,6.60
2018-12-03T18:32:38.281Z,6.87
2018-12-03T18:35:10.399Z,8.30
2018-12-03T18:37:42.649Z,7.57
2018-12-03T18:40:14.896Z,6.00
2018-12-03T18:42:47.262Z,5.17
2018-12-03T18:45:19.473Z,5.23
2018-12-03T18:47:51.603Z,5.27
2018-12-03T18:50:29.592Z,4.33
2018-12-03T18:53:08.521Z,5.57
2018-12-03T18:55:40.853Z,6.10
2018-12-03T18:58:15.660Z,6.07
2018-12-03T19:00:48.025Z,4.50
2018-12-03T19:03:20.158Z,4.43
2018-12-03T19:05:52.407Z,6.40
2018-12-03T19:08:24.714Z,5.73
2018-12-03T19:10:56.955Z,6.43
2018-12-03T19:13:29.187Z,6.73
2018-12-03T19:16:01.476Z,7.47
2018-12-03T19:18:33.682Z,6.43
2018-12-03T19:21:05.881Z,4.70
2018-12-03T19:23:38.011Z,6.33
2018-12-03T19:26:11.673Z,4.73
2018-12-03T19:28:43.903Z,5.13
2018-12-03T19:31:16.123Z,4.97
2018-12-03T19:33:48.339Z,4.47
2018-12-03T19:36:20.518Z,5.43
2018-12-03T19:38:53.005Z,6.33
2018-12-03T19:41:25.220Z,5.40
2018-12-03T19:43:57.461Z,4.93
2018-12-03T19:46:29.654Z,4.23
2018-12-03T19:49:01.892Z,5.47
2018-12-03T19:51:34.182Z,5.27
2018-12-03T19:54:06.292Z,5.03
2018-12-03T19:56:38.529Z,5.13
2018-12-03T19:59:10.752Z,4.83
2018-12-03T20:01:42.915Z,5.10
2018-12-03T20:04:24.757Z,4.43
2018-12-03T20:06:57.061Z,3.90
2018-12-03T20:09:29.172Z,5.30
2018-12-03T20:12:01.474Z,5.10
2018-12-03T20:14:33.665Z,4.80
2018-12-03T20:17:05.833Z,5.00
2018-12-03T20:19:38.086Z,6.13
2018-12-03T20:22:10.192Z,5.43
2018-12-03T20:24:42.442Z,6.43
2018-12-03T20:27:36.135Z,6.83
2018-12-03T20:30:22.774Z,6.73
2018-12-03T20:33:41.368Z,6.23
2018-12-03T20:36:39.914Z,6.27
2018-12-03T20:39:22.373Z,6.17
2018-12-03T20:41:58.973Z,6.43
2018-12-03T20:44:35.239Z,6.23
2018-12-03T20:47:24.227Z,6.27
2018-12-03T20:50:10.300Z,6.53
2018-12-03T20:52:47.432Z,7.27
2018-12-03T20:55:22.944Z,5.27
2018-12-03T20:57:55.484Z,4.97
2018-12-03T21:00:27.657Z,4.93
2018-12-03T21:03:00.505Z,4.77
2018-12-03T21:05:32.952Z,5.00
2018-12-03T21:08:05.149Z,4.93
2018-12-03T21:10:37.396Z,4.90
2018-12-03T21:13:09.573Z,4.97
2018-12-03T21:15:41.811Z,5.30
2018-12-03T21:18:13.925Z,5.13
2018-12-03T21:20:48.232Z,5.13
2018-12-03T21:23:20.350Z,5.10
2018-12-03T21:25:52.689Z,5.20
2018-12-03T21:28:24.936Z,6.07
2018-12-03T21:30:57.301Z,4.70
2018-12-03T21:33:29.578Z,5.23
2018-12-03T21:36:01.845Z,5.13
2018-12-03T21:38:34.076Z,4.13
2018-12-03T21:41:06.203Z,4.93
2018-12-03T21:43:38.640Z,5.53
2018-12-03T21:46:10.860Z,5.03
2018-12-03T21:48:43.082Z,5.23
2018-12-03T21:51:15.282Z,4.27
2018-12-03T21:53:47.480Z,5.87
2018-12-03T21:56:19.716Z,6.10
2018-12-03T21:58:51.921Z,6.00
2018-12-03T22:01:24.048Z,5.97
2018-12-03T22:03:56.268Z,5.53
2018-12-03T22:06:28.511Z,4.90
2018-12-03T22:09:00.740Z,5.60
2018-12-03T22:11:32.983Z,5.33
2018-12-03T22:14:05.197Z,4.73
2018-12-03T22:16:37.352Z,5.53
2018-12-03T22:19:09.539Z,5.07
2018-12-03T22:21:41.726Z,4.43
2018-12-03T22:24:13.903Z,5.70
2018-12-03T22:26:46.005Z,4.83
2018-12-03T22:29:18.226Z,4.17
2018-12-03T22:31:50.445Z,3.70
2018-12-03T22:34:23.072Z,5.57
2018-12-03T22:36:55.393Z,4.10
2018-12-03T22:39:27.561Z,3.23
2018-12-03T22:41:59.786Z,3.50
2018-12-03T22:44:31.987Z,3.67
2018-12-03T22:47:04.221Z,3.33
2018-12-03T22:49:36.411Z,3.20
2018-12-03T22:52:08.620Z,4.03
2018-12-03T22:54:40.785Z,3.80
2018-12-03T22:57:13.034Z,3.70
2018-12-03T22:59:45.212Z,3.67
2018-12-03T23:02:17.427Z,3.83
2018-12-03T23:04:49.620Z,3.50
2018-12-03T23:07:21.741Z,3.13
2018-12-03T23:09:53.957Z,3.53
2018-12-03T23:12:26.172Z,3.33
2018-12-03T23:14:58.382Z,3.23
2018-12-03T23:17:30.644Z,3.40
2018-12-03T23:20:02.969Z,3.50
2018-12-03T23:22:35.157Z,3.43
2018-12-03T23:25:07.360Z,3.57
2018-12-03T23:27:39.565Z,4.23
2018-12-03T23:30:11.735Z,4.07
2018-12-03T23:32:43.926Z,3.50
2018-12-03T23:35:16.158Z,3.70
2018-12-03T23:37:48.264Z,3.10
2018-12-03T23:40:20.458Z,3.03
2018-12-03T23:42:52.683Z,3.00
2018-12-03T23:45:26.172Z,3.37
2018-12-03T23:47:58.367Z,3.43
2018-12-03T23:50:30.574Z,3.37
2018-12-03T23:53:02.656Z,3.40
2018-12-03T23:55:34.853Z,3.50
2018-12-03T23:58:07.045Z,3.50
